createdAt,value
2022-09-25T00:00:36.626Z,2.6
2022-09-25T00:01:45.364Z,2.4
2022-09-25T00:02:55.059Z,2.6
2022-09-25T00:04:04.701Z,2.5
2022-09-25T00:05:13.447Z,2.8
2022-09-25T00:06:23.114Z,2.5
2022-09-25T00:07:30.782Z,2.9
2022-09-25T00:08:39.447Z,2.7
2022-09-25T00:09:49.134Z,2.8
2022-09-25T00:10:56.779Z,2.3
2022-09-25T00:12:06.471Z,2.7
2022-09-25T00:13:15.125Z,2.8
2022-09-25T00:14:23.793Z,2.3
2022-09-25T00:15:33.684Z,2.8
2022-09-25T00:16:42.402Z,2.3
2022-09-25T00:17:51.031Z,2.2
2022-09-25T00:19:00.682Z,2.5
2022-09-25T00:20:10.346Z,2.7
2022-09-25T00:21:20.028Z,3
2022-09-25T00:22:28.683Z,3
2022-09-25T00:23:37.389Z,2.6
2022-09-25T00:24:47.049Z,2.6
2022-09-25T00:25:55.757Z,2.5
2022-09-25T00:27:04.449Z,2.6
2022-09-25T00:28:18.199Z,2.2
2022-09-25T00:29:24.753Z,2.4
2022-09-25T00:30:34.464Z,2.4
2022-09-25T00:31:44.091Z,1.4
2022-09-25T00:32:53.824Z,1.9
2022-09-25T00:34:03.610Z,2
2022-09-25T00:35:11.213Z,2.9
2022-09-25T00:36:20.917Z,2.5
2022-09-25T00:37:30.620Z,2.3
2022-09-25T00:38:40.311Z,2.6
2022-09-25T00:39:49.980Z,2.9
2022-09-25T00:40:58.714Z,2.4
2022-09-25T00:42:07.341Z,2.5
2022-09-25T00:43:17.039Z,2.2
2022-09-25T00:44:24.703Z,2.2
2022-09-25T00:45:34.352Z,2.1
2022-09-25T00:46:44.024Z,2.7
2022-09-25T00:47:53.673Z,2.6
2022-09-25T00:49:01.338Z,2.1
2022-09-25T00:50:11.016Z,1.9
2022-09-25T00:51:18.680Z,2
2022-09-25T00:52:27.350Z,1.7
2022-09-25T00:53:37.004Z,1.8
2022-09-25T00:54:45.658Z,1.8
2022-09-25T00:55:55.392Z,1.7
2022-09-25T00:57:04.046Z,1.8
2022-09-25T00:58:12.711Z,1.7
2022-09-25T00:59:22.419Z,1.4
2022-09-25T01:00:32.097Z,1.7
2022-09-25T01:01:40.862Z,1.6
2022-09-25T01:02:50.511Z,2.3
2022-09-25T01:03:58.110Z,1.7
2022-09-25T01:05:07.791Z,2
2022-09-25T01:06:17.477Z,1.6
2022-09-25T01:07:27.212Z,1.6
2022-09-25T01:08:36.881Z,1.8
2022-09-25T01:09:44.571Z,2.2
2022-09-25T01:10:53.243Z,1.5
2022-09-25T01:12:02.894Z,1.3
2022-09-25T01:13:11.609Z,1.4
2022-09-25T01:14:21.316Z,1.5
2022-09-25T01:15:30.010Z,1.8
2022-09-25T01:16:37.710Z,1.3
2022-09-25T01:17:47.309Z,1.7
2022-09-25T01:18:55.115Z,1.2
2022-09-25T01:20:03.781Z,1.5
2022-09-25T01:21:13.475Z,1.9
2022-09-25T01:22:21.180Z,1.6
2022-09-25T01:23:30.861Z,1.4
2022-09-25T01:24:40.991Z,1.4
2022-09-25T01:25:49.214Z,1.5
2022-09-25T01:26:57.880Z,1.6
2022-09-25T01:28:05.557Z,1.4
2022-09-25T01:29:16.208Z,1.4
2022-09-25T01:30:25.918Z,1.5
2022-09-25T01:31:34.592Z,1.6
2022-09-25T01:32:44.244Z,1.5
2022-09-25T01:33:52.902Z,1.2
2022-09-25T01:35:00.575Z,1.5
2022-09-25T01:36:10.293Z,1.5
2022-09-25T01:37:18.993Z,1.5
2022-09-25T01:38:28.684Z,1.5
2022-09-25T01:39:38.342Z,1.7
2022-09-25T01:40:46.079Z,1.8
2022-09-25T01:41:55.708Z,1.5
2022-09-25T01:43:05.363Z,1.9
2022-09-25T01:44:15.036Z,1.6
2022-09-25T01:45:24.711Z,1.5
2022-09-25T01:46:32.437Z,1.6
2022-09-25T01:47:42.096Z,1.7
2022-09-25T01:48:51.894Z,1.7
2022-09-25T01:50:01.586Z,1.5
2022-09-25T01:51:11.270Z,1.6
2022-09-25T01:52:19.945Z,1.6
2022-09-25T01:53:27.696Z,1.7
2022-09-25T01:54:37.382Z,1.8
2022-09-25T01:55:46.058Z,1.8
2022-09-25T01:56:54.732Z,1.9
2022-09-25T01:58:04.410Z,1.9
2022-09-25T01:59:12.110Z,1.8
2022-09-25T02:00:22.772Z,2.2
2022-09-25T02:01:31.570Z,2.1
2022-09-25T02:02:39.219Z,2.2
2022-09-25T02:03:48.884Z,2.3
2022-09-25T02:04:56.601Z,2.4
2022-09-25T02:06:06.321Z,2.4
2022-09-25T02:07:15.989Z,2.1
2022-09-25T02:08:25.669Z,2.3
2022-09-25T02:09:35.338Z,2.2
2022-09-25T02:10:44.006Z,2.3
2022-09-25T02:11:51.667Z,2
2022-09-25T02:13:01.355Z,2.2
2022-09-25T02:14:09.016Z,2.1
2022-09-25T02:15:17.674Z,2.4
2022-09-25T02:16:27.450Z,1.6
2022-09-25T02:17:37.072Z,1.3
2022-09-25T02:18:46.771Z,1.6
2022-09-25T02:19:55.447Z,1.5
2022-09-25T02:21:03.116Z,1.7
2022-09-25T02:22:12.845Z,1.5
2022-09-25T02:23:21.561Z,1.5
2022-09-25T02:24:30.246Z,1.5
2022-09-25T02:25:39.907Z,1.6
2022-09-25T02:26:47.562Z,1.4
2022-09-25T02:27:57.250Z,1.3
2022-09-25T02:29:06.933Z,1.6
2022-09-25T02:30:14.593Z,1.9
2022-09-25T02:31:24.273Z,1.5
2022-09-25T02:32:32.942Z,1.3
2022-09-25T02:33:41.671Z,1.1
2022-09-25T02:34:50.352Z,1.3
2022-09-25T02:35:58.013Z,1.4
2022-09-25T02:37:07.696Z,1.4
2022-09-25T02:38:16.359Z,1.4
2022-09-25T02:39:25.050Z,1.5
2022-09-25T02:40:34.790Z,1.3
2022-09-25T02:41:43.467Z,1.3
2022-09-25T02:42:52.128Z,1.7
2022-09-25T02:44:01.783Z,1.4
2022-09-25T02:45:10.545Z,1.2
2022-09-25T02:46:18.283Z,1.1
2022-09-25T02:47:27.925Z,1.8
2022-09-25T02:48:35.601Z,1.3
2022-09-25T02:49:45.264Z,1.7
2022-09-25T02:50:54.993Z,1.8
2022-09-25T02:52:04.758Z,1.4
2022-09-25T02:53:14.341Z,1.5
2022-09-25T02:54:23.000Z,1
2022-09-25T02:55:31.684Z,1.2
2022-09-25T02:56:41.392Z,1.2
2022-09-25T02:57:50.068Z,1.7
2022-09-25T02:58:58.744Z,1.2
2022-09-25T03:00:08.402Z,1.4
2022-09-25T03:01:16.139Z,1.4
2022-09-25T03:02:25.798Z,1.3
2022-09-25T03:03:34.464Z,1.4
2022-09-25T03:04:43.122Z,1.5
2022-09-25T03:05:52.831Z,1.8
2022-09-25T03:07:02.515Z,1.3
2022-09-25T03:08:12.273Z,1.2
2022-09-25T03:09:21.900Z,1.4
2022-09-25T03:10:30.592Z,1.2
2022-09-25T03:11:40.268Z,1.3
2022-09-25T03:12:48.963Z,1.3
2022-09-25T03:13:56.659Z,1.8
2022-09-25T03:15:07.312Z,1.4
2022-09-25T03:16:15.017Z,1.5
2022-09-25T03:17:23.658Z,1.5
2022-09-25T03:18:33.306Z,1.1
2022-09-25T03:19:41.995Z,1.5
2022-09-25T03:20:51.681Z,1.4
2022-09-25T03:22:01.345Z,1.5
2022-09-25T03:23:10.006Z,1.3
2022-09-25T03:24:19.707Z,1.2
2022-09-25T03:25:27.502Z,1.3
2022-09-25T03:26:36.222Z,1.3
2022-09-25T03:27:45.912Z,1.3
2022-09-25T03:28:53.614Z,1.2
2022-09-25T03:30:03.314Z,1.3
2022-09-25T03:31:12.033Z,1.3
2022-09-25T03:32:20.640Z,1.3
2022-09-25T03:33:30.339Z,1
2022-09-25T03:34:39.000Z,1.2
2022-09-25T03:35:47.688Z,1.5
2022-09-25T03:36:57.367Z,1.1
2022-09-25T03:38:05.105Z,1.5
2022-09-25T03:39:14.776Z,1.7
2022-09-25T03:40:23.561Z,1.3
2022-09-25T03:41:32.217Z,1.4
2022-09-25T03:42:41.903Z,1.2
2022-09-25T03:43:50.577Z,1.4
2022-09-25T03:45:00.303Z,1.5
2022-09-25T03:46:10.006Z,1.4
2022-09-25T03:47:17.649Z,1.3
2022-09-25T03:48:27.413Z,1.6
2022-09-25T03:49:36.105Z,1.4
2022-09-25T03:50:44.804Z,1.9
2022-09-25T03:51:54.485Z,1.5
2022-09-25T03:53:02.185Z,1.6
2022-09-25T03:54:10.898Z,1.4
2022-09-25T03:55:19.533Z,1.5
2022-09-25T03:56:27.254Z,1.4
2022-09-25T03:57:36.871Z,1.5
2022-09-25T03:58:45.570Z,1.7
2022-09-25T03:59:54.282Z,1.4
2022-09-25T04:01:04.021Z,1.1
2022-09-25T04:02:12.704Z,1.4
2022-09-25T04:03:22.313Z,1.5
2022-09-25T04:04:32.006Z,1.8
2022-09-25T04:05:40.720Z,2.7
2022-09-25T04:06:50.422Z,2.3
2022-09-25T04:07:59.112Z,1.7
2022-09-25T04:09:07.773Z,1.4
2022-09-25T04:10:17.442Z,1.3
2022-09-25T04:11:26.174Z,1.5
2022-09-25T04:12:35.867Z,1.5
2022-09-25T04:13:45.507Z,1.6
2022-09-25T04:14:54.185Z,1.5
2022-09-25T04:16:03.932Z,1.7
2022-09-25T04:17:12.578Z,1.8
2022-09-25T04:18:20.262Z,1.5
2022-09-25T04:19:29.938Z,1.3
2022-09-25T04:20:37.614Z,1.4
2022-09-25T04:21:46.305Z,1.3
2022-09-25T04:22:55.984Z,1.2
2022-09-25T04:24:03.710Z,1.4
2022-09-25T04:25:13.324Z,1.3
2022-09-25T04:26:21.986Z,1.5
2022-09-25T04:27:29.678Z,1.7
2022-09-25T04:28:39.455Z,1.4
2022-09-25T04:29:47.095Z,1.4
2022-09-25T04:30:55.757Z,1.4
2022-09-25T04:32:05.411Z,2.1
2022-09-25T04:33:13.085Z,2
2022-09-25T04:34:22.787Z,2.3
2022-09-25T04:35:31.482Z,2.4
2022-09-25T04:36:39.184Z,2.3
2022-09-25T04:37:48.842Z,2.5
2022-09-25T04:38:57.546Z,1.8
2022-09-25T04:40:06.241Z,1.6
2022-09-25T04:41:15.953Z,1.2
2022-09-25T04:42:24.724Z,0.9
2022-09-25T04:43:32.322Z,1.3
2022-09-25T04:44:42.003Z,1.2
2022-09-25T04:45:50.755Z,1.2
2022-09-25T04:47:00.345Z,1.6
2022-09-25T04:48:10.002Z,1.5
2022-09-25T04:49:18.664Z,1
2022-09-25T04:50:28.326Z,1.2
2022-09-25T04:51:37.004Z,1.4
2022-09-25T04:52:45.695Z,1.4
2022-09-25T04:53:54.415Z,1.4
2022-09-25T04:55:02.087Z,1.7
2022-09-25T04:56:15.285Z,1.5
2022-09-25T04:57:39.055Z,1.4
2022-09-25T04:58:30.108Z,1.4
2022-09-25T04:59:39.804Z,1.2
2022-09-25T05:00:48.540Z,1.4
2022-09-25T05:01:56.419Z,1.3
2022-09-25T05:03:06.093Z,1.1
2022-09-25T05:04:15.764Z,1
2022-09-25T05:05:24.309Z,1.2
2022-09-25T05:06:33.986Z,1.3
2022-09-25T05:07:42.675Z,1.5
2022-09-25T05:08:52.516Z,1.2
2022-09-25T05:10:01.180Z,1.3
2022-09-25T05:11:08.906Z,1.1
2022-09-25T05:12:18.570Z,1.1
2022-09-25T05:13:27.220Z,1.1
2022-09-25T05:14:35.900Z,1.2
2022-09-25T05:15:45.626Z,1
2022-09-25T05:16:54.302Z,1.2
2022-09-25T05:18:03.956Z,1.3
2022-09-25T05:19:12.608Z,1.2
2022-09-25T05:20:20.302Z,1.2
2022-09-25T05:21:29.987Z,1.3
2022-09-25T05:22:39.675Z,1
2022-09-25T05:23:48.403Z,1.3
2022-09-25T05:24:59.088Z,1.4
2022-09-25T05:26:07.726Z,1
2022-09-25T05:27:17.435Z,1
2022-09-25T05:28:26.090Z,1.2
2022-09-25T05:29:35.809Z,1.6
2022-09-25T05:30:44.584Z,1
2022-09-25T05:31:53.476Z,1.5
2022-09-25T05:33:03.274Z,1.1
2022-09-25T05:34:12.877Z,1.1
2022-09-25T05:35:21.531Z,1.2
2022-09-25T05:36:31.205Z,1.2
2022-09-25T05:37:39.943Z,1
2022-09-25T05:38:47.656Z,1.3
2022-09-25T05:39:57.334Z,1.1
2022-09-25T05:41:06.087Z,1.2
2022-09-25T05:42:15.783Z,1.2
2022-09-25T05:43:25.570Z,1.1
2022-09-25T05:44:33.303Z,1.1
2022-09-25T05:45:42.994Z,1
2022-09-25T05:46:51.658Z,1.2
2022-09-25T05:48:00.366Z,0.9
2022-09-25T05:49:10.084Z,1
2022-09-25T05:50:17.751Z,1
2022-09-25T05:51:26.453Z,0.9
2022-09-25T05:52:36.190Z,1.1
2022-09-25T05:53:43.901Z,0.9
2022-09-25T05:54:53.713Z,1.3
2022-09-25T05:56:02.415Z,1.2
2022-09-25T05:57:10.102Z,1.2
2022-09-25T05:58:19.763Z,1
2022-09-25T05:59:27.430Z,1
2022-09-25T06:00:37.121Z,1
2022-09-25T06:01:46.815Z,1
2022-09-25T06:02:54.487Z,1.2
2022-09-25T06:04:04.168Z,1.1
2022-09-25T06:05:13.805Z,1.1
2022-09-25T06:06:27.251Z,1.1
2022-09-25T06:07:34.162Z,1.5
2022-09-25T06:08:42.849Z,1
2022-09-25T06:09:51.529Z,0.9
2022-09-25T06:11:00.204Z,1.4
2022-09-25T06:12:07.899Z,1.2
2022-09-25T06:13:17.614Z,0.8
2022-09-25T06:14:27.296Z,1.1
2022-09-25T06:15:35.962Z,1.2
2022-09-25T06:16:45.637Z,1.2
2022-09-25T06:17:53.397Z,1.1
2022-09-25T06:19:02.047Z,1.2
2022-09-25T06:20:15.783Z,1.4
2022-09-25T06:21:21.431Z,1.3
2022-09-25T06:22:31.094Z,1.3
2022-09-25T06:23:40.768Z,1.5
2022-09-25T06:24:48.475Z,1.4
2022-09-25T06:25:58.132Z,1.5
2022-09-25T06:27:08.835Z,1.5
2022-09-25T06:28:17.521Z,1.6
2022-09-25T06:29:27.339Z,1.6
2022-09-25T06:30:34.999Z,1.4
2022-09-25T06:31:44.784Z,1.3
2022-09-25T06:32:54.385Z,1.6
2022-09-25T06:34:03.060Z,1.4
2022-09-25T06:35:12.865Z,1.6
2022-09-25T06:36:20.562Z,1.4
2022-09-25T06:37:30.348Z,1.4
2022-09-25T06:38:39.897Z,1.4
2022-09-25T06:39:49.552Z,0.9
2022-09-25T06:41:00.246Z,1
2022-09-25T06:42:09.902Z,1.1
2022-09-25T06:43:18.593Z,1.2
2022-09-25T06:44:27.255Z,1.1
2022-09-25T06:45:36.955Z,1.6
2022-09-25T06:46:45.715Z,1.4
2022-09-25T06:47:55.367Z,1.7
2022-09-25T06:49:04.023Z,1.5
2022-09-25T06:50:13.754Z,1.5
2022-09-25T06:51:23.505Z,1.6
2022-09-25T06:52:31.209Z,1.6
2022-09-25T06:53:40.908Z,1.2
2022-09-25T06:54:50.614Z,1.2
2022-09-25T06:55:59.312Z,1.4
2022-09-25T06:57:09.000Z,1.9
2022-09-25T06:58:18.810Z,1.4
2022-09-25T06:59:26.496Z,1.9
2022-09-25T07:00:36.169Z,1.4
2022-09-25T07:01:43.937Z,1.4
2022-09-25T07:02:52.583Z,1.4
2022-09-25T07:04:02.218Z,1.3
2022-09-25T07:05:09.861Z,1.1
2022-09-25T07:06:19.550Z,1.3
2022-09-25T07:07:28.233Z,1.2
2022-09-25T07:08:35.916Z,1.4
2022-09-25T07:09:45.678Z,0.9
2022-09-25T07:10:54.352Z,1.3
2022-09-25T07:12:03.065Z,1.3
2022-09-25T07:13:12.756Z,1.2
2022-09-25T07:14:22.407Z,0.9
2022-09-25T07:15:32.236Z,1.2
2022-09-25T07:16:41.870Z,1.5
2022-09-25T07:17:50.541Z,1.3
2022-09-25T07:19:00.204Z,1.4
2022-09-25T07:20:09.887Z,1.4
2022-09-25T07:21:18.592Z,1.5
2022-09-25T07:22:28.322Z,1.6
2022-09-25T07:23:35.994Z,1.4
2022-09-25T07:24:45.659Z,1.3
2022-09-25T07:25:55.521Z,1.5
2022-09-25T07:27:05.351Z,1.4
2022-09-25T07:28:15.014Z,1.4
2022-09-25T07:29:22.740Z,1.5
2022-09-25T07:30:31.466Z,1.1
2022-09-25T07:31:41.159Z,1.2
2022-09-25T07:32:49.833Z,1.2
2022-09-25T07:33:59.511Z,1.3
2022-09-25T07:35:09.172Z,1.2
2022-09-25T07:36:16.828Z,1.1
2022-09-25T07:37:26.535Z,1.4
2022-09-25T07:38:34.234Z,1.9
2022-09-25T07:39:42.916Z,2
2022-09-25T07:40:52.629Z,1.5
2022-09-25T07:42:00.281Z,1.4
2022-09-25T07:43:09.918Z,1.2
2022-09-25T07:44:38.123Z,1.5
2022-09-25T07:45:28.289Z,1.8
2022-09-25T07:46:38.057Z,1.3
2022-09-25T07:47:46.653Z,1.7
2022-09-25T07:48:55.309Z,1.8
2022-09-25T07:50:04.993Z,1.5
2022-09-25T07:51:14.654Z,1.3
2022-09-25T07:52:24.316Z,1.3
2022-09-25T07:53:32.982Z,1.2
2022-09-25T07:54:41.654Z,1.3
2022-09-25T07:55:51.342Z,1.1
2022-09-25T07:57:01.010Z,1.4
2022-09-25T07:58:10.724Z,1.5
2022-09-25T07:59:19.356Z,1.3
2022-09-25T08:00:29.120Z,1.3
2022-09-25T08:01:43.564Z,1.6
2022-09-25T08:02:47.575Z,1.1
2022-09-25T08:03:56.208Z,1.1
2022-09-25T08:05:05.883Z,1.7
2022-09-25T08:06:14.568Z,1.1
2022-09-25T08:07:23.251Z,1.2
2022-09-25T08:08:32.909Z,1.3
2022-09-25T08:09:41.633Z,1.3
2022-09-25T08:10:51.370Z,1
2022-09-25T08:12:00.027Z,1.6
2022-09-25T08:13:08.713Z,1.5
2022-09-25T08:14:20.343Z,1.3
2022-09-25T08:15:28.176Z,1.3
2022-09-25T08:16:36.829Z,1.6
2022-09-25T08:17:46.566Z,1
2022-09-25T08:18:54.309Z,1.5
2022-09-25T08:20:03.993Z,1.5
2022-09-25T08:21:12.644Z,1.7
2022-09-25T08:22:21.315Z,1.6
2022-09-25T08:23:31.008Z,1.5
2022-09-25T08:24:39.679Z,1.6
2022-09-25T08:25:48.348Z,1.5
2022-09-25T08:26:58.008Z,1.5
2022-09-25T08:28:06.675Z,1.4
2022-09-25T08:29:16.378Z,1.3
2022-09-25T08:30:25.097Z,0.9
2022-09-25T08:31:32.826Z,1
2022-09-25T08:32:42.443Z,0.8
2022-09-25T08:33:51.143Z,1.3
2022-09-25T08:34:59.840Z,1.3
2022-09-25T08:36:09.542Z,1.3
2022-09-25T08:37:19.242Z,1.2
2022-09-25T08:38:27.911Z,1.4
2022-09-25T08:39:37.573Z,1.3
2022-09-25T08:40:47.337Z,1.4
2022-09-25T08:41:56.054Z,1.5
2022-09-25T08:43:05.719Z,1.2
2022-09-25T08:44:13.413Z,1.5
2022-09-25T08:45:23.031Z,1
2022-09-25T08:46:32.781Z,1.4
2022-09-25T08:47:40.387Z,1.3
2022-09-25T08:48:50.079Z,0.8
2022-09-25T08:49:57.743Z,1.3
2022-09-25T08:51:07.416Z,1.2
2022-09-25T08:52:17.092Z,1.2
2022-09-25T08:53:24.831Z,1.5
2022-09-25T08:54:34.495Z,1.4
2022-09-25T08:55:43.166Z,1.4
2022-09-25T08:56:50.847Z,1.5
2022-09-25T08:58:00.571Z,1.6
2022-09-25T08:59:09.248Z,1.5
2022-09-25T09:00:18.948Z,1.3
2022-09-25T09:01:28.708Z,1.5
2022-09-25T09:02:37.401Z,1.4
2022-09-25T09:03:47.038Z,1.3
2022-09-25T09:04:55.887Z,1.4
2022-09-25T09:06:03.616Z,1.4
2022-09-25T09:07:28.462Z,1.3
2022-09-25T09:08:24.382Z,1.8
2022-09-25T09:09:33.086Z,1.2
2022-09-25T09:10:42.775Z,1.6
2022-09-25T09:11:51.476Z,1.6
2022-09-25T09:13:01.164Z,1.5
2022-09-25T09:14:10.858Z,1.7
2022-09-25T09:15:19.592Z,1.3
2022-09-25T09:16:30.239Z,1.2
2022-09-25T09:17:39.646Z,1.7
2022-09-25T09:18:55.726Z,1.5
2022-09-25T09:20:09.820Z,1.7
2022-09-25T09:21:18.526Z,1.6
2022-09-25T09:22:28.367Z,1.9
2022-09-25T09:23:38.035Z,1.4
2022-09-25T09:24:45.694Z,1.7
2022-09-25T09:25:55.416Z,1.5
2022-09-25T09:27:04.077Z,1.5
2022-09-25T09:28:13.764Z,1.6
2022-09-25T09:29:23.427Z,1.4
2022-09-25T09:30:32.111Z,1.7
2022-09-25T09:31:41.788Z,1.4
2022-09-25T09:32:50.442Z,1.3
2022-09-25T09:33:59.193Z,1
2022-09-25T09:35:08.894Z,1.6
2022-09-25T09:36:18.482Z,1.2
2022-09-25T09:37:27.165Z,1.9
2022-09-25T09:38:36.809Z,1.5
2022-09-25T09:39:45.488Z,1.4
2022-09-25T09:40:55.191Z,1.6
2022-09-25T09:42:04.912Z,1.4
2022-09-25T09:43:12.606Z,1.5
2022-09-25T09:44:22.310Z,1.6
2022-09-25T09:45:31.090Z,1.7
2022-09-25T09:46:39.774Z,1.8
2022-09-25T09:47:49.487Z,1.2
2022-09-25T09:48:57.165Z,1.3
2022-09-25T09:50:07.840Z,1.7
2022-09-25T09:51:16.594Z,1.7
2022-09-25T09:52:24.323Z,1.3
2022-09-25T09:53:34.014Z,1
2022-09-25T09:54:42.732Z,1.6
2022-09-25T09:55:51.428Z,1.4
2022-09-25T09:57:01.138Z,1.2
2022-09-25T09:58:09.940Z,1.3
2022-09-25T09:59:19.625Z,1.5
2022-09-25T10:00:28.384Z,1.3
2022-09-25T10:01:42.288Z,1.2
2022-09-25T10:02:48.795Z,1.4
2022-09-25T10:03:56.379Z,1.4
2022-09-25T10:05:04.092Z,1.2
2022-09-25T10:06:13.778Z,1.4
2022-09-25T10:07:21.429Z,1.4
2022-09-25T10:08:31.238Z,1.5
2022-09-25T10:09:40.902Z,2
2022-09-25T10:10:49.602Z,1.2
2022-09-25T10:11:58.278Z,1.3
2022-09-25T10:13:07.937Z,1.5
2022-09-25T10:14:16.689Z,1.6
2022-09-25T10:15:26.384Z,1.8
2022-09-25T10:16:35.063Z,1.7
2022-09-25T10:17:44.723Z,1.8
2022-09-25T10:18:53.381Z,1.4
2022-09-25T10:20:03.095Z,1.4
2022-09-25T10:21:12.805Z,1.7
2022-09-25T10:22:22.500Z,1.5
2022-09-25T10:23:31.167Z,1.5
2022-09-25T10:24:40.854Z,1.4
2022-09-25T10:25:53.808Z,1.2
2022-09-25T10:27:00.333Z,1.5
2022-09-25T10:28:09.982Z,1.5
2022-09-25T10:29:17.627Z,1.6
2022-09-25T10:30:27.412Z,1.2
2022-09-25T10:31:34.981Z,1.3
2022-09-25T10:32:43.659Z,1.4
2022-09-25T10:33:53.327Z,1.1
2022-09-25T10:35:01.997Z,0.9
2022-09-25T10:36:10.703Z,1.1
2022-09-25T10:37:20.439Z,1.2
2022-09-25T10:38:28.092Z,1.5
2022-09-25T10:39:45.953Z,1.8
2022-09-25T10:40:48.409Z,1.2
2022-09-25T10:41:56.154Z,0.8
2022-09-25T10:43:05.865Z,1
2022-09-25T10:44:15.554Z,0.8
2022-09-25T10:45:23.215Z,1.1
2022-09-25T10:46:32.909Z,0.7
2022-09-25T10:47:42.583Z,0.5
2022-09-25T10:48:51.432Z,0.7
2022-09-25T10:50:01.092Z,0.5
2022-09-25T10:51:09.773Z,0.6
2022-09-25T10:52:19.441Z,0.8
2022-09-25T10:53:28.119Z,1.1
2022-09-25T10:54:42.115Z,0.5
2022-09-25T10:55:47.683Z,0.7
2022-09-25T10:56:56.392Z,0.6
2022-09-25T10:58:05.135Z,0.7
2022-09-25T10:59:14.811Z,0.6
2022-09-25T11:00:23.516Z,0.9
2022-09-25T11:01:33.480Z,0.6
2022-09-25T11:02:42.061Z,0.7
2022-09-25T11:03:50.758Z,0.7
2022-09-25T11:05:00.447Z,0.7
2022-09-25T11:06:08.248Z,0.8
2022-09-25T11:07:18.016Z,0.8
2022-09-25T11:08:27.715Z,0.7
2022-09-25T11:09:35.397Z,0.6
2022-09-25T11:10:45.097Z,0.6
2022-09-25T11:11:54.922Z,0.6
2022-09-25T11:13:04.583Z,0.7
2022-09-25T11:14:14.249Z,0.9
2022-09-25T11:15:22.908Z,0.9
2022-09-25T11:16:32.595Z,0.7
2022-09-25T11:17:42.321Z,0.6
2022-09-25T11:18:50.992Z,0.8
2022-09-25T11:20:00.705Z,0.5
2022-09-25T11:21:10.376Z,0.8
2022-09-25T11:22:19.056Z,0.8
2022-09-25T11:23:28.769Z,0.7
2022-09-25T11:24:37.479Z,0.7
2022-09-25T11:25:47.223Z,0.6
2022-09-25T11:26:56.905Z,0.6
2022-09-25T11:28:05.565Z,0.9
2022-09-25T11:29:15.628Z,0.7
2022-09-25T11:30:25.012Z,0.8
2022-09-25T11:31:33.684Z,0.9
2022-09-25T11:32:44.967Z,0.9
2022-09-25T11:33:53.049Z,0.6
2022-09-25T11:35:02.770Z,0.6
2022-09-25T11:36:12.436Z,0.9
2022-09-25T11:37:21.127Z,0.7
2022-09-25T11:38:30.783Z,0.8
2022-09-25T11:39:40.448Z,0.6
2022-09-25T11:40:50.220Z,0.5
2022-09-25T11:41:59.900Z,0.8
2022-09-25T11:43:09.609Z,0.6
2022-09-25T11:44:19.271Z,0.8
2022-09-25T11:45:28.948Z,0.9
2022-09-25T11:46:37.713Z,0.6
2022-09-25T11:47:47.427Z,0.6
2022-09-25T11:48:56.080Z,0.6
2022-09-25T11:50:05.739Z,0.6
2022-09-25T11:51:15.420Z,0.5
2022-09-25T11:52:24.172Z,0.5
2022-09-25T11:53:32.832Z,0.4
2022-09-25T11:54:42.740Z,0.5
2022-09-25T11:55:51.182Z,0.9
2022-09-25T11:57:00.898Z,0.7
2022-09-25T11:58:10.594Z,0.6
2022-09-25T11:59:19.252Z,0.7
2022-09-25T12:00:28.938Z,0.7
2022-09-25T12:01:37.883Z,0.9
2022-09-25T12:02:46.416Z,0.8
2022-09-25T12:03:56.061Z,0.5
2022-09-25T12:05:04.730Z,0.4
2022-09-25T12:06:14.408Z,0.6
2022-09-25T12:07:23.088Z,0.5
2022-09-25T12:08:30.749Z,0.5
2022-09-25T12:09:40.533Z,0.5
2022-09-25T12:10:49.218Z,0.6
2022-09-25T12:11:57.937Z,0.6
2022-09-25T12:13:07.625Z,0.8
2022-09-25T12:14:16.398Z,0.8
2022-09-25T12:15:26.039Z,0.8
2022-09-25T12:16:35.922Z,0.6
2022-09-25T12:17:43.613Z,0.8
2022-09-25T12:18:53.365Z,0.8
2022-09-25T12:20:02.084Z,0.7
2022-09-25T12:21:11.807Z,0.4
2022-09-25T12:22:21.549Z,0.8
2022-09-25T12:23:30.218Z,0.6
2022-09-25T12:24:39.945Z,0.8
2022-09-25T12:25:48.719Z,1
2022-09-25T12:26:56.455Z,0.7
2022-09-25T12:28:06.221Z,0.9
2022-09-25T12:29:14.996Z,0.7
2022-09-25T12:30:24.721Z,0.8
2022-09-25T12:31:34.464Z,0.6
2022-09-25T12:32:42.167Z,0.8
2022-09-25T12:33:49.827Z,0.9
2022-09-25T12:34:59.603Z,0.8
2022-09-25T12:36:08.329Z,1.1
2022-09-25T12:37:18.025Z,0.8
2022-09-25T12:38:27.716Z,0.9
2022-09-25T12:39:35.512Z,0.7
2022-09-25T12:40:45.303Z,0.9
2022-09-25T12:41:54.922Z,0.7
2022-09-25T12:43:04.605Z,0.7
2022-09-25T12:44:14.370Z,0.9
2022-09-25T12:45:23.080Z,0.8
2022-09-25T12:46:31.766Z,0.8
2022-09-25T12:47:40.454Z,1
2022-09-25T12:48:49.119Z,0.9
2022-09-25T12:49:58.853Z,0.8
2022-09-25T12:51:08.512Z,0.9
2022-09-25T12:52:17.197Z,1.2
2022-09-25T12:53:26.890Z,1
2022-09-25T12:54:35.557Z,0.8
2022-09-25T12:55:44.265Z,0.8
2022-09-25T12:56:53.984Z,1.1
2022-09-25T12:58:02.674Z,1.2
2022-09-25T12:59:12.350Z,1
2022-09-25T13:00:21.120Z,0.9
2022-09-25T13:01:30.913Z,1.3
2022-09-25T13:02:40.500Z,1
2022-09-25T13:03:49.168Z,0.8
2022-09-25T13:04:58.855Z,1.1
2022-09-25T13:06:08.534Z,1.1
2022-09-25T13:07:17.259Z,1.3
2022-09-25T13:08:26.970Z,1.1
2022-09-25T13:09:36.622Z,0.9
2022-09-25T13:10:44.363Z,0.8
2022-09-25T13:11:54.034Z,0.7
2022-09-25T13:13:01.767Z,1.1
2022-09-25T13:14:11.468Z,0.9
2022-09-25T13:15:21.102Z,1.1
2022-09-25T13:16:30.804Z,0.7
2022-09-25T13:17:40.453Z,0.9
2022-09-25T13:18:49.193Z,0.7
2022-09-25T13:19:57.846Z,0.9
2022-09-25T13:21:07.524Z,1
2022-09-25T13:22:15.211Z,0.9
2022-09-25T13:23:24.902Z,0.9
2022-09-25T13:24:34.632Z,0.8
2022-09-25T13:25:42.309Z,1
2022-09-25T13:26:52.051Z,1.1
2022-09-25T13:28:01.758Z,1.3
2022-09-25T13:29:11.568Z,1.2
2022-09-25T13:30:21.305Z,1.4
2022-09-25T13:31:30.256Z,1.3
2022-09-25T13:32:38.950Z,1.4
2022-09-25T13:33:48.625Z,1
2022-09-25T13:34:56.378Z,1.1
2022-09-25T13:36:06.063Z,1
2022-09-25T13:37:14.728Z,1
2022-09-25T13:38:22.376Z,1.1
2022-09-25T13:39:32.044Z,0.8
2022-09-25T13:40:39.799Z,1.4
2022-09-25T13:41:48.442Z,1.3
2022-09-25T13:42:58.118Z,1.5
2022-09-25T13:44:05.837Z,1.2
2022-09-25T13:45:15.520Z,1.1
2022-09-25T13:46:25.271Z,1.5
2022-09-25T13:47:32.935Z,1.3
2022-09-25T13:48:42.623Z,1.3
2022-09-25T13:49:51.291Z,1.2
2022-09-25T13:51:00.096Z,1.4
2022-09-25T13:52:09.690Z,1.7
2022-09-25T13:53:17.502Z,1.1
2022-09-25T13:54:27.105Z,1.2
2022-09-25T13:55:36.817Z,1.1
2022-09-25T13:56:45.468Z,1.2
2022-09-25T13:57:55.175Z,1
2022-09-25T13:59:03.032Z,1.1
2022-09-25T14:00:12.710Z,1.2
2022-09-25T14:01:22.540Z,1
2022-09-25T14:02:31.147Z,1.1
2022-09-25T14:03:40.778Z,1.1
2022-09-25T14:04:48.450Z,1.2
2022-09-25T14:05:57.168Z,1.1
2022-09-25T14:07:06.951Z,1.2
2022-09-25T14:08:15.525Z,1.5
2022-09-25T14:09:25.310Z,1.3
2022-09-25T14:10:35.083Z,1.2
2022-09-25T14:11:43.748Z,1.8
2022-09-25T14:12:53.433Z,1.2
2022-09-25T14:14:02.145Z,1.5
2022-09-25T14:15:09.819Z,1.4
2022-09-25T14:16:19.605Z,1.1
2022-09-25T14:17:28.240Z,1.3
2022-09-25T14:18:36.920Z,1.1
2022-09-25T14:19:46.608Z,1.2
2022-09-25T14:20:56.348Z,1.2
2022-09-25T14:22:06.070Z,1.1
2022-09-25T14:23:14.790Z,1.2
2022-09-25T14:24:23.449Z,1.2
2022-09-25T14:25:33.242Z,1
2022-09-25T14:26:40.834Z,1.1
2022-09-25T14:27:49.542Z,1.2
2022-09-25T14:28:59.208Z,0.9
2022-09-25T14:30:06.877Z,1
2022-09-25T14:31:14.694Z,1.3
2022-09-25T14:32:50.629Z,1.1
2022-09-25T14:33:35.001Z,0.9
2022-09-25T14:34:43.656Z,1.2
2022-09-25T14:35:53.319Z,1.6
2022-09-25T14:37:01.969Z,1.2
2022-09-25T14:38:11.698Z,1.3
2022-09-25T14:39:20.469Z,1.2
2022-09-25T14:40:28.129Z,1.4
2022-09-25T14:41:37.791Z,1.1
2022-09-25T14:42:47.478Z,1.2
2022-09-25T14:43:57.170Z,1.4
2022-09-25T14:45:06.853Z,1.3
2022-09-25T14:46:16.529Z,1.2
2022-09-25T14:47:26.267Z,1.1
2022-09-25T14:48:34.923Z,1.6
2022-09-25T14:49:42.620Z,1.4
2022-09-25T14:50:52.323Z,1.1
2022-09-25T14:52:01.023Z,1.2
2022-09-25T14:53:08.693Z,1
2022-09-25T14:54:18.354Z,1.6
2022-09-25T14:55:26.152Z,1.7
2022-09-25T14:56:35.831Z,1.7
2022-09-25T14:57:44.518Z,1.2
2022-09-25T14:58:53.204Z,1.3
2022-09-25T15:00:01.867Z,1.7
2022-09-25T15:01:10.664Z,1.4
2022-09-25T15:02:20.435Z,1.4
2022-09-25T15:03:29.082Z,1.3
2022-09-25T15:04:36.743Z,1.1
2022-09-25T15:05:46.424Z,1.4
2022-09-25T15:06:56.091Z,1.1
2022-09-25T15:08:05.816Z,1.3
2022-09-25T15:09:15.471Z,1.7
2022-09-25T15:10:23.135Z,1.3
2022-09-25T15:11:31.915Z,1.3
2022-09-25T15:12:41.483Z,1.3
2022-09-25T15:13:50.222Z,1.3
2022-09-25T15:14:59.878Z,1.5
2022-09-25T15:16:09.681Z,1.5
2022-09-25T15:17:17.375Z,1.4
2022-09-25T15:18:27.056Z,1.5
2022-09-25T15:19:35.733Z,1.3
2022-09-25T15:20:44.404Z,1.4
2022-09-25T15:21:54.113Z,1.6
2022-09-25T15:23:01.786Z,1.2
2022-09-25T15:24:11.547Z,1
2022-09-25T15:25:20.184Z,1.3
2022-09-25T15:26:29.846Z,1.5
2022-09-25T15:27:39.651Z,1
2022-09-25T15:28:49.242Z,0.8
2022-09-25T15:29:58.918Z,1.4
2022-09-25T15:31:08.677Z,0.9
2022-09-25T15:32:17.327Z,1.4
2022-09-25T15:33:27.000Z,1.4
2022-09-25T15:34:35.741Z,1.3
2022-09-25T15:35:44.430Z,1.1
2022-09-25T15:36:54.167Z,1.3
2022-09-25T15:38:01.819Z,1.3
2022-09-25T15:39:10.504Z,1.4
2022-09-25T15:40:20.377Z,1.4
2022-09-25T15:41:29.013Z,1.1
2022-09-25T15:42:38.747Z,1.4
2022-09-25T15:43:47.423Z,1.5
2022-09-25T15:44:55.075Z,2
2022-09-25T15:46:04.826Z,1.7
2022-09-25T15:47:12.432Z,1.6
2022-09-25T15:48:21.112Z,1.9
2022-09-25T15:49:30.819Z,1.7
2022-09-25T15:50:38.479Z,1.5
2022-09-25T15:51:51.944Z,1.6
2022-09-25T15:52:57.814Z,1.6
2022-09-25T15:54:07.608Z,1.6
2022-09-25T15:55:17.220Z,1.4